sensor_id;sensor_type;location;lat;lon;timestamp;pressure;altitude;pressure_sealevel;temperature;humidity
55291;BME280;41155;39.768;2.712;2023-04-27T00:01:32;101389.06;;;20.52;55.23
55291;BME280;41155;39.768;2.712;2023-04-27T00:03:57;101395.66;;;20.51;55.28
55291;BME280;41155;39.768;2.712;2023-04-27T00:06:23;101388.41;;;20.42;55.08
55291;BME280;41155;39.768;2.712;2023-04-27T00:08:50;101386.97;;;20.44;54.84
55291;BME280;41155;39.768;2.712;2023-04-27T00:11:16;101382.75;;;20.52;54.64
55291;BME280;41155;39.768;2.712;2023-04-27T00:13:41;101373.72;;;20.51;54.84
55291;BME280;41155;39.768;2.712;2023-04-27T00:16:07;101375.94;;;20.49;55.62
55291;BME280;41155;39.768;2.712;2023-04-27T00:18:32;101374.22;;;20.53;55.73
55291;BME280;41155;39.768;2.712;2023-04-27T00:20:58;101368.38;;;20.60;56.14
55291;BME280;41155;39.768;2.712;2023-04-27T00:23:24;101362.16;;;20.54;56.24
55291;BME280;41155;39.768;2.712;2023-04-27T00:25:50;101368.56;;;20.64;56.30
55291;BME280;41155;39.768;2.712;2023-04-27T00:28:15;101368.31;;;20.46;56.00
55291;BME280;41155;39.768;2.712;2023-04-27T00:30:41;101365.38;;;20.57;55.69
55291;BME280;41155;39.768;2.712;2023-04-27T00:33:06;101360.78;;;20.52;55.68
55291;BME280;41155;39.768;2.712;2023-04-27T00:35:32;101356.81;;;20.44;55.81
55291;BME280;41155;39.768;2.712;2023-04-27T00:37:57;101364.53;;;20.42;55.81
55291;BME280;41155;39.768;2.712;2023-04-27T00:40:23;101363.63;;;20.47;55.80
55291;BME280;41155;39.768;2.712;2023-04-27T00:42:48;101350.59;;;20.39;55.49
55291;BME280;41155;39.768;2.712;2023-04-27T00:45:14;101350.91;;;20.37;55.57
55291;BME280;41155;39.768;2.712;2023-04-27T00:47:40;101335.75;;;20.26;55.81
55291;BME280;41155;39.768;2.712;2023-04-27T00:50:06;101353.78;;;20.13;56.37
55291;BME280;41155;39.768;2.712;2023-04-27T00:52:35;101310.00;;;19.37;58.36
55291;BME280;41155;39.768;2.712;2023-04-27T00:55:02;101340.88;;;19.81;57.64
55291;BME280;41155;39.768;2.712;2023-04-27T00:57:29;101331.72;;;19.72;57.70
55291;BME280;41155;39.768;2.712;2023-04-27T00:59:54;101299.66;;;19.53;58.02
55291;BME280;41155;39.768;2.712;2023-04-27T01:02:22;101338.13;;;19.81;57.88
55291;BME280;41155;39.768;2.712;2023-04-27T01:04:48;101319.78;;;19.81;57.38
55291;BME280;41155;39.768;2.712;2023-04-27T01:07:17;101328.72;;;19.87;57.12
55291;BME280;41155;39.768;2.712;2023-04-27T01:09:43;101308.78;;;19.68;57.32
55291;BME280;41155;39.768;2.712;2023-04-27T01:12:08;101324.03;;;19.74;57.61
55291;BME280;41155;39.768;2.712;2023-04-27T01:14:35;101317.41;;;19.75;57.42
55291;BME280;41155;39.768;2.712;2023-04-27T01:17:00;101318.75;;;19.77;57.55
55291;BME280;41155;39.768;2.712;2023-04-27T01:19:26;101268.31;;;19.59;57.12
55291;BME280;41155;39.768;2.712;2023-04-27T01:21:53;101322.44;;;19.86;57.25
55291;BME280;41155;39.768;2.712;2023-04-27T01:24:18;101317.16;;;19.90;57.18
55291;BME280;41155;39.768;2.712;2023-04-27T01:26:44;101319.34;;;19.36;58.50
55291;BME280;41155;39.768;2.712;2023-04-27T01:29:09;101311.09;;;19.55;58.00
55291;BME280;41155;39.768;2.712;2023-04-27T01:31:35;101310.41;;;19.69;57.66
55291;BME280;41155;39.768;2.712;2023-04-27T01:34:00;101304.81;;;19.55;58.05
55291;BME280;41155;39.768;2.712;2023-04-27T01:36:26;101294.66;;;19.55;56.55
55291;BME280;41155;39.768;2.712;2023-04-27T01:38:52;101288.91;;;19.38;57.58
55291;BME280;41155;39.768;2.712;2023-04-27T01:41:17;101293.66;;;19.13;57.03
55291;BME280;41155;39.768;2.712;2023-04-27T01:43:42;101281.72;;;19.23;56.96
55291;BME280;41155;39.768;2.712;2023-04-27T01:46:10;101305.34;;;19.38;57.21
55291;BME280;41155;39.768;2.712;2023-04-27T01:48:37;101299.50;;;19.26;57.72
55291;BME280;41155;39.768;2.712;2023-04-27T01:51:03;101300.97;;;19.37;58.04
55291;BME280;41155;39.768;2.712;2023-04-27T01:53:29;101284.72;;;19.27;57.78
55291;BME280;41155;39.768;2.712;2023-04-27T01:55:55;101276.50;;;19.27;57.72
55291;BME280;41155;39.768;2.712;2023-04-27T01:58:21;101301.31;;;19.11;58.56
55291;BME280;41155;39.768;2.712;2023-04-27T02:00:46;101307.13;;;19.29;57.44
55291;BME280;41155;39.768;2.712;2023-04-27T02:03:11;101299.38;;;19.36;57.78
55291;BME280;41155;39.768;2.712;2023-04-27T02:05:37;101299.50;;;19.26;57.60
55291;BME280;41155;39.768;2.712;2023-04-27T02:08:03;101299.38;;;19.36;58.03
55291;BME280;41155;39.768;2.712;2023-04-27T02:10:28;101294.91;;;19.40;57.95
55291;BME280;41155;39.768;2.712;2023-04-27T02:12:54;101300.00;;;19.47;57.71
55291;BME280;41155;39.768;2.712;2023-04-27T02:15:19;101292.47;;;19.38;57.51
55291;BME280;41155;39.768;2.712;2023-04-27T02:17:45;101298.00;;;19.14;57.63
55291;BME280;41155;39.768;2.712;2023-04-27T02:20:11;101288.59;;;19.20;57.10
55291;BME280;41155;39.768;2.712;2023-04-27T02:22:40;101282.31;;;19.20;56.32
55291;BME280;41155;39.768;2.712;2023-04-27T02:25:06;101273.50;;;19.23;56.27
55291;BME280;41155;39.768;2.712;2023-04-27T02:27:32;101292.56;;;19.33;56.56
55291;BME280;41155;39.768;2.712;2023-04-27T02:30:06;101290.09;;;19.32;57.31
55291;BME280;41155;39.768;2.712;2023-04-27T02:32:32;101268.84;;;19.24;57.35
55291;BME280;41155;39.768;2.712;2023-04-27T02:34:58;101291.63;;;19.38;57.29
55291;BME280;41155;39.768;2.712;2023-04-27T02:37:23;101287.88;;;19.34;56.96
55291;BME280;41155;39.768;2.712;2023-04-27T02:39:49;101268.00;;;18.61;59.30
55291;BME280;41155;39.768;2.712;2023-04-27T02:42:14;101285.34;;;19.00;58.56
55291;BME280;41155;39.768;2.712;2023-04-27T02:44:40;101304.44;;;19.24;57.97
55291;BME280;41155;39.768;2.712;2023-04-27T02:47:06;101303.19;;;19.16;57.91
55291;BME280;41155;39.768;2.712;2023-04-27T02:49:31;101296.59;;;19.17;57.78
55291;BME280;41155;39.768;2.712;2023-04-27T02:51:57;101304.00;;;19.16;57.74
55291;BME280;41155;39.768;2.712;2023-04-27T02:54:22;101297.41;;;19.17;57.89
55291;BME280;41155;39.768;2.712;2023-04-27T02:56:47;101306.16;;;19.19;57.75
55291;BME280;41155;39.768;2.712;2023-04-27T02:59:13;101298.22;;;18.99;57.92
55291;BME280;41155;39.768;2.712;2023-04-27T03:01:38;101290.38;;;19.11;57.84
55291;BME280;41155;39.768;2.712;2023-04-27T03:04:04;101295.25;;;19.14;57.71
55291;BME280;41155;39.768;2.712;2023-04-27T03:06:29;101286.34;;;19.28;57.16
55291;BME280;41155;39.768;2.712;2023-04-27T03:08:55;101302.50;;;19.05;57.67
55291;BME280;41155;39.768;2.712;2023-04-27T03:11:20;101292.75;;;18.99;58.43
55291;BME280;41155;39.768;2.712;2023-04-27T03:13:45;101288.38;;;18.98;58.34
55291;BME280;41155;39.768;2.712;2023-04-27T03:16:11;101289.28;;;19.12;57.97
55291;BME280;41155;39.768;2.712;2023-04-27T03:18:37;101290.97;;;19.08;57.99
55291;BME280;41155;39.768;2.712;2023-04-27T03:21:11;101249.38;;;18.87;57.68
55291;BME280;41155;39.768;2.712;2023-04-27T03:23:37;101293.44;;;19.10;57.41
55291;BME280;41155;39.768;2.712;2023-04-27T03:26:10;101291.44;;;19.15;57.46
55291;BME280;41155;39.768;2.712;2023-04-27T03:28:36;101290.25;;;19.22;57.29
55291;BME280;41155;39.768;2.712;2023-04-27T03:31:09;101284.09;;;19.11;57.37
55291;BME280;41155;39.768;2.712;2023-04-27T03:33:35;101285.72;;;19.12;57.33
55291;BME280;41155;39.768;2.712;2023-04-27T03:36:01;101280.63;;;19.05;57.55
55291;BME280;41155;39.768;2.712;2023-04-27T03:38:29;101277.00;;;19.10;57.39
55291;BME280;41155;39.768;2.712;2023-04-27T03:40:55;101265.31;;;19.04;57.31
55291;BME280;41155;39.768;2.712;2023-04-27T03:43:21;101262.25;;;19.06;57.30
55291;BME280;41155;39.768;2.712;2023-04-27T03:45:46;101220.47;;;18.81;57.34
55291;BME280;41155;39.768;2.712;2023-04-27T03:48:15;101267.69;;;19.11;57.33
55291;BME280;41155;39.768;2.712;2023-04-27T03:50:43;101262.19;;;19.11;57.33
55291;BME280;41155;39.768;2.712;2023-04-27T03:53:09;101242.22;;;18.91;57.46
55291;BME280;41155;39.768;2.712;2023-04-27T03:55:42;101271.88;;;19.03;57.55
55291;BME280;41155;39.768;2.712;2023-04-27T03:58:08;101250.19;;;18.88;57.66
55291;BME280;41155;39.768;2.712;2023-04-27T04:00:35;101264.94;;;18.92;57.09
55291;BME280;41155;39.768;2.712;2023-04-27T04:03:02;101231.50;;;18.71;57.74
55291;BME280;41155;39.768;2.712;2023-04-27T04:05:27;101214.66;;;18.64;57.82
55291;BME280;41155;39.768;2.712;2023-04-27T04:07:55;101245.25;;;18.90;57.75
55291;BME280;41155;39.768;2.712;2023-04-27T04:10:21;101249.53;;;18.96;57.66
55291;BME280;41155;39.768;2.712;2023-04-27T04:12:46;101252.84;;;18.74;57.63
55291;BME280;41155;39.768;2.712;2023-04-27T04:15:12;101245.25;;;18.90;57.19
55291;BME280;41155;39.768;2.712;2023-04-27T04:17:37;101249.53;;;18.96;56.78
55291;BME280;41155;39.768;2.712;2023-04-27T04:20:03;101251.81;;;18.89;57.01
55291;BME280;41155;39.768;2.712;2023-04-27T04:22:35;101213.34;;;18.80;54.63
55291;BME280;41155;39.768;2.712;2023-04-27T04:25:01;101256.19;;;18.90;55.36
55291;BME280;41155;39.768;2.712;2023-04-27T04:27:26;101242.63;;;18.80;55.65
55291;BME280;41155;39.768;2.712;2023-04-27T04:29:52;101261.66;;;18.90;55.27
55291;BME280;41155;39.768;2.712;2023-04-27T04:32:17;101253.84;;;19.02;52.67
55291;BME280;41155;39.768;2.712;2023-04-27T04:34:48;101243.03;;;18.92;52.94
55291;BME280;41155;39.768;2.712;2023-04-27T04:37:15;101240.16;;;19.02;52.32
55291;BME280;41155;39.768;2.712;2023-04-27T04:39:40;101245.25;;;19.09;52.56
55291;BME280;41155;39.768;2.712;2023-04-27T04:42:06;101229.72;;;19.04;52.04
55291;BME280;41155;39.768;2.712;2023-04-27T04:44:32;101244.22;;;19.24;51.29
55291;BME280;41155;39.768;2.712;2023-04-27T04:46:57;101236.09;;;19.18;51.30
55291;BME280;41155;39.768;2.712;2023-04-27T04:49:23;101238.97;;;19.27;51.38
55291;BME280;41155;39.768;2.712;2023-04-27T04:51:48;101247.56;;;19.39;51.38
55291;BME280;41155;39.768;2.712;2023-04-27T04:54:14;101234.25;;;19.33;51.18
55291;BME280;41155;39.768;2.712;2023-04-27T04:56:39;101251.75;;;19.32;51.93
55291;BME280;41155;39.768;2.712;2023-04-27T04:59:05;101225.88;;;19.24;50.67
55291;BME280;41155;39.768;2.712;2023-04-27T05:01:31;101251.41;;;19.19;51.00
55291;BME280;41155;39.768;2.712;2023-04-27T05:03:56;101234.44;;;19.17;50.78
55291;BME280;41155;39.768;2.712;2023-04-27T05:06:21;101252.81;;;19.36;50.66
55291;BME280;41155;39.768;2.712;2023-04-27T05:08:47;101249.56;;;19.34;50.85
55291;BME280;41155;39.768;2.712;2023-04-27T05:11:12;101244.94;;;19.29;52.48
55291;BME280;41155;39.768;2.712;2023-04-27T05:13:38;101206.66;;;19.10;53.04
55291;BME280;41155;39.768;2.712;2023-04-27T05:16:05;101262.13;;;19.35;53.67
55291;BME280;41155;39.768;2.712;2023-04-27T05:18:31;101265.91;;;19.39;53.71
55291;BME280;41155;39.768;2.712;2023-04-27T05:20:56;101268.19;;;19.32;54.19
55291;BME280;41155;39.768;2.712;2023-04-27T05:23:22;101231.50;;;19.14;53.91
55291;BME280;41155;39.768;2.712;2023-04-27T05:25:48;101258.94;;;19.28;53.93
55291;BME280;41155;39.768;2.712;2023-04-27T05:28:13;101272.72;;;19.23;54.26
55291;BME280;41155;39.768;2.712;2023-04-27T05:30:38;101256.66;;;19.16;54.30
55291;BME280;41155;39.768;2.712;2023-04-27T05:33:04;101278.69;;;19.06;54.87
55291;BME280;41155;39.768;2.712;2023-04-27T05:35:30;101275.28;;;18.95;54.37
55291;BME280;41155;39.768;2.712;2023-04-27T05:37:56;101280.41;;;19.02;53.85
55291;BME280;41155;39.768;2.712;2023-04-27T05:40:22;101233.56;;;18.60;54.58
55291;BME280;41155;39.768;2.712;2023-04-27T05:42:48;101276.09;;;18.95;54.34
55291;BME280;41155;39.768;2.712;2023-04-27T05:45:14;101285.50;;;19.08;54.10
55291;BME280;41155;39.768;2.712;2023-04-27T05:47:40;101218.22;;;18.83;53.80
55291;BME280;41155;39.768;2.712;2023-04-27T05:50:05;101252.72;;;19.03;54.01
55291;BME280;41155;39.768;2.712;2023-04-27T05:52:31;101297.66;;;19.40;53.93
55291;BME280;41155;39.768;2.712;2023-04-27T05:54:57;101301.03;;;19.32;54.01
55291;BME280;41155;39.768;2.712;2023-04-27T05:57:24;101289.44;;;19.21;54.25
55291;BME280;41155;39.768;2.712;2023-04-27T05:59:50;101307.13;;;19.29;54.15
55291;BME280;41155;39.768;2.712;2023-04-27T06:02:17;101299.38;;;19.36;53.74
55291;BME280;41155;39.768;2.712;2023-04-27T06:04:42;101300.25;;;19.50;54.04
55291;BME280;41155;39.768;2.712;2023-04-27T06:07:12;101299.13;;;19.51;53.25
55291;BME280;41155;39.768;2.712;2023-04-27T06:09:38;101299.06;;;19.56;52.55
55291;BME280;41155;39.768;2.712;2023-04-27T06:12:05;101299.72;;;19.48;52.22
55291;BME280;41155;39.768;2.712;2023-04-27T06:14:32;101296.31;;;19.56;52.68
55291;BME280;41155;39.768;2.712;2023-04-27T06:16:58;101300.56;;;19.68;52.27
55291;BME280;41155;39.768;2.712;2023-04-27T06:19:24;101296.09;;;19.72;51.52
55291;BME280;41155;39.768;2.712;2023-04-27T06:21:49;101304.75;;;19.79;51.53
55291;BME280;41155;39.768;2.712;2023-04-27T06:24:15;101302.91;;;19.74;53.12
55291;BME280;41155;39.768;2.712;2023-04-27T06:26:41;101307.41;;;19.84;53.53
55291;BME280;41155;39.768;2.712;2023-04-27T06:29:06;101294.22;;;19.86;53.47
55291;BME280;41155;39.768;2.712;2023-04-27T06:31:32;101310.66;;;19.86;53.68
55291;BME280;41155;39.768;2.712;2023-04-27T06:33:58;101312.13;;;19.97;52.71
55291;BME280;41155;39.768;2.712;2023-04-27T06:36:24;101307.56;;;20.06;53.09
55291;BME280;41155;39.768;2.712;2023-04-27T06:38:53;101306.94;;;20.28;53.09
55291;BME280;41155;39.768;2.712;2023-04-27T06:41:23;101305.41;;;20.36;52.83
55291;BME280;41155;39.768;2.712;2023-04-27T06:43:49;101314.56;;;20.45;53.31
55291;BME280;41155;39.768;2.712;2023-04-27T06:46:14;101284.59;;;20.35;53.11
55291;BME280;41155;39.768;2.712;2023-04-27T06:48:40;101309.44;;;20.58;51.66
55291;BME280;41155;39.768;2.712;2023-04-27T06:51:05;101297.66;;;20.57;50.51
55291;BME280;41155;39.768;2.712;2023-04-27T06:53:31;101308.31;;;20.86;52.16
55291;BME280;41155;39.768;2.712;2023-04-27T06:55:57;101317.25;;;20.92;52.00
55291;BME280;41155;39.768;2.712;2023-04-27T06:58:22;101308.34;;;21.09;51.67
55291;BME280;41155;39.768;2.712;2023-04-27T07:00:48;101306.94;;;21.11;50.61
55291;BME280;41155;39.768;2.712;2023-04-27T07:03:13;101302.66;;;21.19;49.79
55291;BME280;41155;39.768;2.712;2023-04-27T07:05:39;101296.72;;;21.26;48.27
55291;BME280;41155;39.768;2.712;2023-04-27T07:08:05;101288.28;;;21.50;48.39
55291;BME280;41155;39.768;2.712;2023-04-27T07:10:31;101296.50;;;21.72;48.56
55291;BME280;41155;39.768;2.712;2023-04-27T07:12:56;101299.88;;;21.92;48.20
55291;BME280;41155;39.768;2.712;2023-04-27T07:15:22;101288.13;;;22.00;46.46
55291;BME280;41155;39.768;2.712;2023-04-27T07:17:50;101284.38;;;22.18;45.39
55291;BME280;41155;39.768;2.712;2023-04-27T07:20:16;101298.06;;;22.41;45.66
55291;BME280;41155;39.768;2.712;2023-04-27T07:22:41;101295.84;;;22.51;45.39
55291;BME280;41155;39.768;2.712;2023-04-27T07:25:07;101272.84;;;22.47;45.68
55291;BME280;41155;39.768;2.712;2023-04-27T07:27:33;101296.69;;;22.61;44.68
55291;BME280;41155;39.768;2.712;2023-04-27T07:29:59;101296.59;;;22.74;43.70
55291;BME280;41155;39.768;2.712;2023-04-27T07:32:25;101298.03;;;22.72;43.29
55291;BME280;41155;39.768;2.712;2023-04-27T07:34:50;101295.25;;;22.63;43.41
55291;BME280;41155;39.768;2.712;2023-04-27T07:37:17;101296.41;;;22.79;43.97
55291;BME280;41155;39.768;2.712;2023-04-27T07:39:43;101292.63;;;22.98;43.37
55291;BME280;41155;39.768;2.712;2023-04-27T07:42:08;101293.72;;;22.97;42.50
55291;BME280;41155;39.768;2.712;2023-04-27T07:44:34;101303.25;;;22.91;42.77
55291;BME280;41155;39.768;2.712;2023-04-27T07:46:59;101309.50;;;23.22;42.41
55291;BME280;41155;39.768;2.712;2023-04-27T07:49:29;101285.69;;;23.27;41.72
55291;BME280;41155;39.768;2.712;2023-04-27T07:51:54;101271.13;;;23.35;41.54
55291;BME280;41155;39.768;2.712;2023-04-27T07:54:20;101297.53;;;23.71;41.31
55291;BME280;41155;39.768;2.712;2023-04-27T07:56:46;101290.88;;;23.80;40.93
55291;BME280;41155;39.768;2.712;2023-04-27T07:59:11;101304.97;;;23.96;40.92
55291;BME280;41155;39.768;2.712;2023-04-27T08:01:38;101291.31;;;24.08;40.67
55291;BME280;41155;39.768;2.712;2023-04-27T08:04:04;101297.91;;;24.33;39.79
55291;BME280;41155;39.768;2.712;2023-04-27T08:06:29;101277.91;;;24.36;39.56
55291;BME280;41155;39.768;2.712;2023-04-27T08:08:55;101291.75;;;24.66;38.23
55291;BME280;41155;39.768;2.712;2023-04-27T08:11:23;101287.03;;;24.67;39.03
55291;BME280;41155;39.768;2.712;2023-04-27T08:13:48;101295.22;;;24.54;39.77
55291;BME280;41155;39.768;2.712;2023-04-27T08:16:14;101302.53;;;24.59;40.03
55291;BME280;41155;39.768;2.712;2023-04-27T08:18:39;101296.47;;;24.66;39.81
55291;BME280;41155;39.768;2.712;2023-04-27T08:21:05;101301.88;;;24.62;40.04
55291;BME280;41155;39.768;2.712;2023-04-27T08:23:31;101306.56;;;24.62;39.82
55291;BME280;41155;39.768;2.712;2023-04-27T08:25:57;101296.91;;;24.76;40.03
55291;BME280;41155;39.768;2.712;2023-04-27T08:28:23;101260.63;;;24.57;41.25
55291;BME280;41155;39.768;2.712;2023-04-27T08:30:48;101305.53;;;24.75;40.65
55291;BME280;41155;39.768;2.712;2023-04-27T08:33:13;101305.34;;;24.80;40.65
55291;BME280;41155;39.768;2.712;2023-04-27T08:35:39;101292.78;;;24.53;41.54
55291;BME280;41155;39.768;2.712;2023-04-27T08:38:04;101302.28;;;24.73;41.54
55291;BME280;41155;39.768;2.712;2023-04-27T08:40:30;101307.81;;;24.73;41.67
55291;BME280;41155;39.768;2.712;2023-04-27T08:42:57;101303.75;;;24.70;40.73
55291;BME280;41155;39.768;2.712;2023-04-27T08:45:24;101305.25;;;24.68;40.97
55291;BME280;41155;39.768;2.712;2023-04-27T08:47:49;101303.38;;;24.80;40.59
55291;BME280;41155;39.768;2.712;2023-04-27T08:50:15;101291.81;;;24.57;40.60
55291;BME280;41155;39.768;2.712;2023-04-27T08:52:47;101308.38;;;24.57;40.55
55291;BME280;41155;39.768;2.712;2023-04-27T08:55:13;101299.41;;;24.61;40.92
55291;BME280;41155;39.768;2.712;2023-04-27T08:57:39;101314.09;;;24.82;40.08
55291;BME280;41155;39.768;2.712;2023-04-27T09:00:05;101310.47;;;24.90;40.65
55291;BME280;41155;39.768;2.712;2023-04-27T09:02:44;101302.47;;;24.97;40.01
55291;BME280;41155;39.768;2.712;2023-04-27T09:05:20;101316.47;;;25.22;39.87
55291;BME280;41155;39.768;2.712;2023-04-27T09:10:21;101309.00;;;25.43;39.69
55291;BME280;41155;39.768;2.712;2023-04-27T09:12:55;101304.69;;;25.34;38.67
55291;BME280;41155;39.768;2.712;2023-04-27T09:15:21;101302.25;;;25.32;38.76
55291;BME280;41155;39.768;2.712;2023-04-27T09:17:52;101316.75;;;25.50;39.37
55291;BME280;41155;39.768;2.712;2023-04-27T09:20:18;101315.88;;;25.58;39.15
55291;BME280;41155;39.768;2.712;2023-04-27T09:22:51;101317.69;;;25.75;38.57
55291;BME280;41155;39.768;2.712;2023-04-27T09:25:30;101312.06;;;25.63;37.86
55291;BME280;41155;39.768;2.712;2023-04-27T09:27:56;101312.63;;;25.56;37.31
55291;BME280;41155;39.768;2.712;2023-04-27T09:30:22;101324.22;;;25.70;37.27
55291;BME280;41155;39.768;2.712;2023-04-27T09:32:55;101324.50;;;25.57;37.03
55291;BME280;41155;39.768;2.712;2023-04-27T09:35:26;101324.97;;;25.59;36.97
55291;BME280;41155;39.768;2.712;2023-04-27T09:37:52;101331.72;;;25.70;36.83
55291;BME280;41155;39.768;2.712;2023-04-27T09:40:19;101307.22;;;25.81;36.40
55291;BME280;41155;39.768;2.712;2023-04-27T09:42:48;101334.38;;;26.00;36.13
55291;BME280;41155;39.768;2.712;2023-04-27T09:45:13;101321.59;;;25.95;36.21
55291;BME280;41155;39.768;2.712;2023-04-27T09:47:39;101330.75;;;26.20;36.52
55291;BME280;41155;39.768;2.712;2023-04-27T09:50:06;101335.97;;;26.34;36.21
55291;BME280;41155;39.768;2.712;2023-04-27T09:52:32;101339.31;;;26.40;36.55
55291;BME280;41155;39.768;2.712;2023-04-27T09:54:58;101329.84;;;26.41;35.91
55291;BME280;41155;39.768;2.712;2023-04-27T09:57:36;101334.38;;;26.45;35.26
55291;BME280;41155;39.768;2.712;2023-04-27T10:06:06;101340.81;;;26.25;36.16
55291;BME280;41155;39.768;2.712;2023-04-27T10:08:35;101340.00;;;26.24;36.09
55291;BME280;41155;39.768;2.712;2023-04-27T10:11:12;101345.94;;;26.02;36.21
55291;BME280;41155;39.768;2.712;2023-04-27T10:13:37;101342.63;;;26.21;35.75
55291;BME280;41155;39.768;2.712;2023-04-27T10:16:17;101354.53;;;26.33;36.27
55291;BME280;41155;39.768;2.712;2023-04-27T10:18:50;101348.44;;;26.40;36.11
55291;BME280;41155;39.768;2.712;2023-04-27T10:21:17;101320.53;;;26.45;35.65
55291;BME280;41155;39.768;2.712;2023-04-27T10:23:46;101352.19;;;26.69;35.35
55291;BME280;41155;39.768;2.712;2023-04-27T10:26:23;101351.88;;;26.70;35.29
55291;BME280;41155;39.768;2.712;2023-04-27T10:29:04;101354.84;;;26.53;35.07
55291;BME280;41155;39.768;2.712;2023-04-27T10:31:31;101361.25;;;26.45;35.21
55291;BME280;41155;39.768;2.712;2023-04-27T10:34:08;101357.53;;;26.28;35.53
55291;BME280;41155;39.768;2.712;2023-04-27T10:36:36;101359.50;;;26.40;35.07
55291;BME280;41155;39.768;2.712;2023-04-27T10:39:02;101359.63;;;26.44;35.37
55291;BME280;41155;39.768;2.712;2023-04-27T10:41:33;101367.25;;;26.47;35.19
55291;BME280;41155;39.768;2.712;2023-04-27T10:44:17;101375.16;;;26.57;34.80
55291;BME280;41155;39.768;2.712;2023-04-27T10:46:53;101371.69;;;26.85;34.33
55291;BME280;41155;39.768;2.712;2023-04-27T10:49:20;101368.25;;;26.88;34.18
55291;BME280;41155;39.768;2.712;2023-04-27T10:51:48;101377.13;;;26.56;34.85
55291;BME280;41155;39.768;2.712;2023-04-27T10:54:14;101370.09;;;26.83;34.21
55291;BME280;41155;39.768;2.712;2023-04-27T10:56:39;101366.97;;;26.97;34.23
55291;BME280;41155;39.768;2.712;2023-04-27T10:59:06;101347.00;;;26.79;34.25
55291;BME280;41155;39.768;2.712;2023-04-27T11:01:32;101376.44;;;26.84;34.25
55291;BME280;41155;39.768;2.712;2023-04-27T11:03:59;101364.91;;;26.94;34.23
55291;BME280;41155;39.768;2.712;2023-04-27T11:06:26;101353.34;;;27.04;34.64
55291;BME280;41155;39.768;2.712;2023-04-27T11:08:56;101340.09;;;27.22;33.49
55291;BME280;41155;39.768;2.712;2023-04-27T11:11:21;101336.56;;;27.13;34.02
55291;BME280;41155;39.768;2.712;2023-04-27T11:13:48;101344.66;;;27.31;33.42
55291;BME280;41155;39.768;2.712;2023-04-27T11:16:15;101342.59;;;27.40;32.79
55291;BME280;41155;39.768;2.712;2023-04-27T11:18:41;101350.53;;;27.41;33.22
55291;BME280;41155;39.768;2.712;2023-04-27T11:21:09;101333.34;;;27.36;33.20
55291;BME280;41155;39.768;2.712;2023-04-27T11:23:35;101342.59;;;27.40;33.33
55291;BME280;41155;39.768;2.712;2023-04-27T11:26:21;101327.31;;;27.46;33.88
55291;BME280;41155;39.768;2.712;2023-04-27T11:31:24;101331.63;;;27.19;34.41
55291;BME280;41155;39.768;2.712;2023-04-27T11:33:50;101325.53;;;27.25;34.27
55291;BME280;41155;39.768;2.712;2023-04-27T11:36:20;101325.25;;;27.31;34.22
55291;BME280;41155;39.768;2.712;2023-04-27T11:38:46;101324.13;;;27.07;34.50
55291;BME280;41155;39.768;2.712;2023-04-27T11:41:12;101316.50;;;27.16;33.78
55291;BME280;41155;39.768;2.712;2023-04-27T11:43:41;101319.28;;;27.04;34.30
55291;BME280;41155;39.768;2.712;2023-04-27T11:46:08;101329.31;;;27.09;34.64
55291;BME280;41155;39.768;2.712;2023-04-27T11:48:37;101317.91;;;26.98;34.71
55291;BME280;41155;39.768;2.712;2023-04-27T11:51:03;101315.59;;;27.00;34.35
55291;BME280;41155;39.768;2.712;2023-04-27T11:53:34;101318.47;;;27.03;34.27
55291;BME280;41155;39.768;2.712;2023-04-27T11:56:01;101305.66;;;26.87;34.80
55291;BME280;41155;39.768;2.712;2023-04-27T11:58:37;101313.53;;;26.97;34.77
55291;BME280;41155;39.768;2.712;2023-04-27T12:01:03;101313.31;;;26.77;34.91
55291;BME280;41155;39.768;2.712;2023-04-27T12:03:29;101274.03;;;26.75;34.13
55291;BME280;41155;39.768;2.712;2023-04-27T12:05:56;101312.47;;;27.14;34.26
55291;BME280;41155;39.768;2.712;2023-04-27T12:08:31;101310.97;;;27.04;34.00
55291;BME280;41155;39.768;2.712;2023-04-27T12:10:56;101309.13;;;27.08;34.52
55291;BME280;41155;39.768;2.712;2023-04-27T12:13:22;101302.66;;;27.16;33.63
55291;BME280;41155;39.768;2.712;2023-04-27T12:15:47;101297.13;;;26.92;34.26
55291;BME280;41155;39.768;2.712;2023-04-27T12:18:13;101301.19;;;26.82;35.04
55291;BME280;41155;39.768;2.712;2023-04-27T12:20:38;101295.03;;;27.01;34.96
55291;BME280;41155;39.768;2.712;2023-04-27T12:23:04;101289.47;;;27.13;35.27
55291;BME280;41155;39.768;2.712;2023-04-27T12:25:29;101287.19;;;27.15;34.57
55291;BME280;41155;39.768;2.712;2023-04-27T12:27:55;101276.97;;;27.32;34.40
55291;BME280;41155;39.768;2.712;2023-04-27T12:30:22;101278.63;;;27.20;33.64
55291;BME280;41155;39.768;2.712;2023-04-27T12:32:48;101278.63;;;27.20;33.58
55291;BME280;41155;39.768;2.712;2023-04-27T12:35:13;101267.88;;;27.19;34.50
55291;BME280;41155;39.768;2.712;2023-04-27T12:37:39;101256.91;;;27.10;34.53
55291;BME280;41155;39.768;2.712;2023-04-27T12:40:05;101264.78;;;27.08;34.52
55291;BME280;41155;39.768;2.712;2023-04-27T12:42:34;101266.28;;;27.05;35.06
55291;BME280;41155;39.768;2.712;2023-04-27T12:45:00;101259.25;;;26.96;35.01
55291;BME280;41155;39.768;2.712;2023-04-27T12:47:26;101242.19;;;26.94;34.77
55291;BME280;41155;39.768;2.712;2023-04-27T12:49:51;101255.78;;;27.39;34.26
55291;BME280;41155;39.768;2.712;2023-04-27T12:52:17;101245.41;;;27.36;34.75
55291;BME280;41155;39.768;2.712;2023-04-27T12:54:43;101250.06;;;27.60;33.80
55291;BME280;41155;39.768;2.712;2023-04-27T12:57:09;101244.53;;;27.76;33.95
55291;BME280;41155;39.768;2.712;2023-04-27T12:59:35;101248.19;;;27.64;33.70